Time;durP1;ratioP1;P1;durP2;ratioP2;P2;SDS_P1;SDS_P2;PMS_P1;PMS_P2;Temp;Humidity;BMP_temperature;BMP_pressure;BME280_temperature;BME280_humidity;BME280_pressure;Samples;Min_cycle;Max_cycle;Signal;HPM_P1;HPM_P2
2023/12/13 00:02:07;;;;;;;0.77;0.60;;;;;;;;;;5067099;28;20033;-78
2023/12/13 00:04:35;;;;;;;0.32;0.28;;;;;;;;;;5056050;28;20024;-78
2023/12/13 00:07:10;;;;;;;4.32;0.73;;;;;;;;;;5036832;28;20059;-80
2023/12/13 00:09:42;;;;;;;1.55;0.98;;;;;;;;;;5052711;28;20036;-79
2023/12/13 00:12:08;;;;;;;1.88;1.23;;;;;;;;;;5053380;28;20496;-79
2023/12/13 00:14:47;;;;;;;0.35;0.35;;;;;;;;;;5050536;28;20025;-79
2023/12/13 00:17:18;;;;;;;0.73;0.73;;;;;;;;;;5055310;28;20453;-78
2023/12/13 00:19:50;;;;;;;0.80;0.80;;;;;;;;;;5050772;28;20107;-78
2023/12/13 00:22:16;;;;;;;0.50;0.50;;;;;;;;;;5050221;28;20108;-78
2023/12/13 00:24:43;;;;;;;0.65;0.60;;;;;;;;;;5053866;28;20151;-78
2023/12/13 00:27:15;;;;;;;1.13;1.13;;;;;;;;;;5049354;28;20028;-80
2023/12/13 00:30:03;;;;;;;0.75;0.75;;;;;;;;;;5050588;28;20503;-78
2023/12/13 00:32:40;;;;;;;0.90;0.90;;;;;;;;;;5051472;28;20081;-80
2023/12/13 00:35:06;;;;;;;1.83;1.17;;;;;;;;;;5052632;28;20090;-80
2023/12/13 00:37:33;;;;;;;0.68;0.68;;;;;;;;;;5051309;28;20039;-78
2023/12/13 00:40:06;;;;;;;0.38;0.38;;;;;;;;;;5051073;28;20029;-78
2023/12/13 00:42:33;;;;;;;0.43;0.43;;;;;;;;;;5051466;28;20029;-79
2023/12/13 00:45:02;;;;;;;0.63;0.63;;;;;;;;;;5049145;28;20095;-78
2023/12/13 00:47:28;;;;;;;0.52;0.52;;;;;;;;;;5052529;28;20027;-78
2023/12/13 00:50:00;;;;;;;0.75;0.75;;;;;;;;;;5048681;28;20086;-78
2023/12/13 00:52:32;;;;;;;0.90;0.68;;;;;;;;;;5052176;28;20055;-79
2023/12/13 00:55:00;;;;;;;0.40;0.40;;;;;;;;;;5050287;28;20161;-78
2023/12/13 00:57:29;;;;;;;1.33;0.80;;;;;;;;;;5048159;28;20417;-78
2023/12/13 00:59:55;;;;;;;1.08;0.75;;;;;;;;;;5050591;28;20047;-79
2023/12/13 01:02:24;;;;;;;1.80;0.90;;;;;;;;;;5051448;28;20273;-79
2023/12/13 01:04:53;;;;;;;2.13;1.02;;;;;;;;;;5047843;28;20033;-79
2023/12/13 01:07:19;;;;;;;0.90;0.73;;;;;;;;;;5045895;28;20082;-80
2023/12/13 01:09:45;;;;;;;1.15;1.08;;;;;;;;;;5051898;28;20028;-79
2023/12/13 01:12:42;;;;;;;1.40;1.02;;;;;;;;;;5055274;28;20029;-79
2023/12/13 01:15:14;;;;;;;0.82;0.82;;;;;;;;;;5053427;28;20075;-78
2023/12/13 01:17:43;;;;;;;0.50;0.50;;;;;;;;;;5055252;28;20032;-78
2023/12/13 01:20:15;;;;;;;0.30;0.30;;;;;;;;;;5053766;28;20024;-79
2023/12/13 01:22:56;;;;;;;2.35;0.90;;;;;;;;;;5054900;28;20029;-81
2023/12/13 01:25:25;;;;;;;2.38;1.67;;;;;;;;;;5055361;28;20029;-78
2023/12/13 01:27:57;;;;;;;1.73;0.52;;;;;;;;;;5057158;28;20044;-80
2023/12/13 01:30:36;;;;;;;0.52;0.52;;;;;;;;;;5055821;28;20507;-78
2023/12/13 01:33:14;;;;;;;7.20;0.93;;;;;;;;;;5082145;28;20093;-79
2023/12/13 01:35:44;;;;;;;1.27;0.88;;;;;;;;;;5054672;28;20545;-79
2023/12/13 01:38:19;;;;;;;0.50;0.50;;;;;;;;;;5054744;28;20064;-81
2023/12/13 01:41:06;;;;;;;0.77;0.77;;;;;;;;;;5056047;28;20036;-78
2023/12/13 01:43:51;;;;;;;1.55;1.02;;;;;;;;;;5054049;28;20044;-79
2023/12/13 01:46:35;;;;;;;0.85;0.60;;;;;;;;;;5054392;28;20036;-79
2023/12/13 01:49:05;;;;;;;0.85;0.80;;;;;;;;;;5056575;28;20384;-79
2023/12/13 01:51:32;;;;;;;3.40;1.75;;;;;;;;;;5051795;28;20029;-79
2023/12/13 01:53:58;;;;;;;2.08;1.17;;;;;;;;;;5053699;28;20025;-80
2023/12/13 01:56:23;;;;;;;1.50;1.40;;;;;;;;;;5054825;28;20504;-80
2023/12/13 01:58:50;;;;;;;3.92;1.20;;;;;;;;;;5085639;28;20033;-79
2023/12/13 02:01:15;;;;;;;0.55;0.55;;;;;;;;;;5055580;28;20029;-78
2023/12/13 02:03:41;;;;;;;0.77;0.77;;;;;;;;;;5057114;28;20044;-79
2023/12/13 02:06:09;;;;;;;1.48;1.20;;;;;;;;;;5057053;28;20024;-81
2023/12/13 02:08:35;;;;;;;0.98;0.80;;;;;;;;;;5055289;28;20032;-80
2023/12/13 02:11:00;;;;;;;2.45;1.00;;;;;;;;;;5054102;28;20032;-79
2023/12/13 02:13:26;;;;;;;0.82;0.82;;;;;;;;;;5057077;28;20039;-79
2023/12/13 02:15:54;;;;;;;0.57;0.57;;;;;;;;;;5056450;28;20056;-78
2023/12/13 02:18:20;;;;;;;0.57;0.57;;;;;;;;;;5055428;28;20828;-79
2023/12/13 02:20:45;;;;;;;1.75;1.15;;;;;;;;;;5053746;28;20037;-80
2023/12/13 02:23:11;;;;;;;3.65;1.13;;;;;;;;;;5055914;28;20107;-80
2023/12/13 02:25:47;;;;;;;0.93;0.80;;;;;;;;;;5052254;28;20585;-79
2023/12/13 02:28:13;;;;;;;1.38;1.23;;;;;;;;;;5057063;28;20143;-80
2023/12/13 02:30:43;;;;;;;0.90;0.90;;;;;;;;;;5051778;28;20116;-79
2023/12/13 02:33:08;;;;;;;1.80;1.02;;;;;;;;;;5055312;28;20021;-81
2023/12/13 02:35:34;;;;;;;0.63;0.63;;;;;;;;;;5057343;28;20032;-81
2023/12/13 02:38:00;;;;;;;0.55;0.52;;;;;;;;;;5054156;28;20021;-79
2023/12/13 02:40:25;;;;;;;2.40;0.77;;;;;;;;;;5055767;28;20071;-82
2023/12/13 02:42:51;;;;;;;0.57;0.57;;;;;;;;;;5055818;28;20033;-78
2023/12/13 02:45:17;;;;;;;0.63;0.63;;;;;;;;;;5058008;28;20071;-79
2023/12/13 02:47:43;;;;;;;0.77;0.60;;;;;;;;;;5053851;28;20037;-79
2023/12/13 02:50:12;;;;;;;1.85;0.80;;;;;;;;;;5084312;28;20098;-78
2023/12/13 02:52:39;;;;;;;0.70;0.70;;;;;;;;;;5059786;28;20100;-79
2023/12/13 02:55:06;;;;;;;3.90;1.70;;;;;;;;;;5055957;28;20476;-79
2023/12/13 02:57:32;;;;;;;0.77;0.77;;;;;;;;;;5055731;28;20187;-79
2023/12/13 02:59:58;;;;;;;0.47;0.47;;;;;;;;;;5057988;28;20084;-80
2023/12/13 03:02:25;;;;;;;1.58;0.80;;;;;;;;;;5051332;28;20474;-79
2023/12/13 03:04:53;;;;;;;1.33;1.02;;;;;;;;;;5055419;28;20566;-78
2023/12/13 03:07:19;;;;;;;1.27;0.82;;;;;;;;;;5057224;28;20020;-78
2023/12/13 03:09:44;;;;;;;1.15;1.00;;;;;;;;;;5054553;28;20035;-79
2023/12/13 03:12:10;;;;;;;2.42;1.23;;;;;;;;;;5054099;28;20032;-78
2023/12/13 03:14:36;;;;;;;3.45;1.40;;;;;;;;;;5053885;28;20029;-79
2023/12/13 03:17:01;;;;;;;2.03;1.52;;;;;;;;;;5054649;28;20067;-80
2023/12/13 03:19:26;;;;;;;0.60;0.60;;;;;;;;;;5055013;28;20029;-79
2023/12/13 03:21:52;;;;;;;0.75;0.75;;;;;;;;;;5052587;28;20121;-80
2023/12/13 03:24:17;;;;;;;1.85;0.90;;;;;;;;;;5051937;28;20064;-78
2023/12/13 03:26:43;;;;;;;0.75;0.75;;;;;;;;;;5055999;28;20385;-79
2023/12/13 03:29:09;;;;;;;1.70;1.15;;;;;;;;;;5054622;28;20037;-79
2023/12/13 03:31:37;;;;;;;1.40;1.30;;;;;;;;;;5054885;28;20040;-79
2023/12/13 03:34:03;;;;;;;1.38;1.27;;;;;;;;;;5048755;28;20037;-79
2023/12/13 03:36:28;;;;;;;0.73;0.73;;;;;;;;;;5054200;28;20027;-78
2023/12/13 03:38:56;;;;;;;2.45;1.67;;;;;;;;;;5049502;28;20040;-80
2023/12/13 03:41:25;;;;;;;1.45;1.33;;;;;;;;;;5049019;28;20103;-79
2023/12/13 03:43:50;;;;;;;1.83;1.40;;;;;;;;;;5051688;28;20035;-81
2023/12/13 03:46:16;;;;;;;3.17;1.27;;;;;;;;;;5053074;28;20032;-81
2023/12/13 03:48:41;;;;;;;1.73;1.45;;;;;;;;;;5052846;28;20037;-80
2023/12/13 03:51:07;;;;;;;1.52;1.10;;;;;;;;;;5055063;28;21144;-78
2023/12/13 03:53:32;;;;;;;1.63;1.52;;;;;;;;;;5053688;28;20389;-79
2023/12/13 03:55:59;;;;;;;1.67;1.27;;;;;;;;;;5052632;28;20060;-80
2023/12/13 03:58:27;;;;;;;2.45;1.13;;;;;;;;;;5056186;28;20461;-78
2023/12/13 04:00:52;;;;;;;2.78;1.67;;;;;;;;;;5050620;28;20029;-79
2023/12/13 04:03:18;;;;;;;0.82;0.82;;;;;;;;;;5054008;28;20047;-80
2023/12/13 04:05:43;;;;;;;16.73;1.25;;;;;;;;;;5056529;28;20036;-78
2023/12/13 04:08:09;;;;;;;1.88;1.70;;;;;;;;;;5051934;28;20028;-80
2023/12/13 04:10:34;;;;;;;2.08;1.75;;;;;;;;;;5054254;28;20029;-80
2023/12/13 04:13:00;;;;;;;2.17;1.80;;;;;;;;;;5053422;28;20052;-78
2023/12/13 04:15:25;;;;;;;8.77;2.60;;;;;;;;;;5052502;28;20028;-79
2023/12/13 04:17:51;;;;;;;2.97;1.95;;;;;;;;;;5052034;28;20040;-80
2023/12/13 04:20:16;;;;;;;6.28;2.75;;;;;;;;;;5053270;28;20052;-80
2023/12/13 04:22:42;;;;;;;8.10;2.15;;;;;;;;;;5050052;28;20029;-79
2023/12/13 04:25:08;;;;;;;3.08;2.10;;;;;;;;;;5051596;28;20025;-79
2023/12/13 04:27:34;;;;;;;2.10;1.52;;;;;;;;;;5052161;28;20087;-80
2023/12/13 04:29:59;;;;;;;2.38;2.13;;;;;;;;;;5051840;28;20539;-78
2023/12/13 04:32:25;;;;;;;1.23;0.95;;;;;;;;;;5051455;28;20024;-80
2023/12/13 04:34:50;;;;;;;1.67;1.58;;;;;;;;;;5052637;28;20040;-79
2023/12/13 04:37:17;;;;;;;4.97;2.92;;;;;;;;;;5052313;28;20025;-78
2023/12/13 04:39:42;;;;;;;5.53;1.98;;;;;;;;;;5053370;28;20495;-77
2023/12/13 04:42:08;;;;;;;4.05;2.08;;;;;;;;;;5050787;28;20033;-79
2023/12/13 04:44:33;;;;;;;1.63;1.30;;;;;;;;;;5053724;28;20459;-80
2023/12/13 04:46:59;;;;;;;2.17;1.15;;;;;;;;;;5052454;28;20495;-81
2023/12/13 04:49:24;;;;;;;2.17;1.33;;;;;;;;;;5055115;28;20047;-78
2023/12/13 04:51:52;;;;;;;1.02;0.88;;;;;;;;;;5045774;28;20082;-79
2023/12/13 04:54:19;;;;;;;4.30;2.25;;;;;;;;;;5046472;28;20075;-79
2023/12/13 04:56:44;;;;;;;2.50;1.15;;;;;;;;;;5045952;28;20098;-79
2023/12/13 04:59:10;;;;;;;2.97;1.70;;;;;;;;;;5046005;28;20024;-78
2023/12/13 05:01:35;;;;;;;6.45;1.65;;;;;;;;;;5045765;28;20112;-80
2023/12/13 05:04:01;;;;;;;3.45;2.25;;;;;;;;;;5048291;28;20033;-79
2023/12/13 05:06:29;;;;;;;2.60;1.42;;;;;;;;;;5047641;28;20032;-80
2023/12/13 05:08:55;;;;;;;3.97;3.10;;;;;;;;;;5047120;28;20896;-78
2023/12/13 05:11:20;;;;;;;2.17;1.85;;;;;;;;;;5047906;28;20033;-77
2023/12/13 05:13:45;;;;;;;7.00;2.90;;;;;;;;;;5048465;28;20123;-79
2023/12/13 05:16:11;;;;;;;2.13;1.92;;;;;;;;;;5048051;28;20020;-76
2023/12/13 05:18:37;;;;;;;2.65;1.75;;;;;;;;;;5048669;28;20485;-79
2023/12/13 05:21:02;;;;;;;2.58;1.65;;;;;;;;;;5047873;28;20037;-78
2023/12/13 05:23:28;;;;;;;2.95;1.63;;;;;;;;;;5048325;28;20021;-78
2023/12/13 05:25:56;;;;;;;6.10;3.22;;;;;;;;;;5047331;28;20035;-78
2023/12/13 05:28:22;;;;;;;1.50;1.40;;;;;;;;;;5047531;28;20079;-79
2023/12/13 05:30:47;;;;;;;3.20;2.15;;;;;;;;;;5048037;28;20495;-78
2023/12/13 05:33:13;;;;;;;4.40;1.85;;;;;;;;;;5048052;28;20021;-78
2023/12/13 05:35:38;;;;;;;3.40;1.98;;;;;;;;;;5047009;28;20033;-79
2023/12/13 05:38:04;;;;;;;4.22;3.03;;;;;;;;;;5048244;28;20037;-78
2023/12/13 05:40:31;;;;;;;2.60;2.33;;;;;;;;;;5046747;28;20132;-77
2023/12/13 05:43:01;;;;;;;4.03;3.10;;;;;;;;;;5046308;28;20033;-79
2023/12/13 05:45:26;;;;;;;3.10;2.38;;;;;;;;;;5047799;28;20064;-76
2023/12/13 05:47:52;;;;;;;8.15;2.33;;;;;;;;;;5047698;28;20028;-77
2023/12/13 05:50:17;;;;;;;5.93;3.20;;;;;;;;;;5044980;28;20461;-78
2023/12/13 05:52:44;;;;;;;6.22;2.72;;;;;;;;;;5047956;28;20029;-77
2023/12/13 05:55:17;;;;;;;0.50;0.50;;;;;;;;;;5048086;28;20036;-76
2023/12/13 05:57:43;;;;;;;3.50;2.22;;;;;;;;;;5047910;28;20060;-76
2023/12/13 06:00:09;;;;;;;2.17;1.95;;;;;;;;;;5050266;28;20115;-76
2023/12/13 06:02:35;;;;;;;3.20;2.80;;;;;;;;;;5050077;28;20020;-75
2023/12/13 06:05:02;;;;;;;4.30;3.65;;;;;;;;;;5050045;28;20515;-77
2023/12/13 06:07:28;;;;;;;4.90;3.10;;;;;;;;;;5053252;28;20052;-77
2023/12/13 06:09:54;;;;;;;2.97;2.30;;;;;;;;;;5050299;28;20025;-77
2023/12/13 06:12:19;;;;;;;3.95;3.42;;;;;;;;;;5049206;28;20029;-77
2023/12/13 06:14:45;;;;;;;9.18;4.00;;;;;;;;;;5048227;28;20070;-76
2023/12/13 06:17:10;;;;;;;4.85;3.47;;;;;;;;;;5053054;28;20449;-75
2023/12/13 06:19:35;;;;;;;6.55;3.25;;;;;;;;;;5050598;28;20020;-76
2023/12/13 06:22:01;;;;;;;4.70;2.92;;;;;;;;;;5050023;28;20116;-78
2023/12/13 06:24:27;;;;;;;5.55;2.25;;;;;;;;;;5052436;28;20766;-78
2023/12/13 06:26:52;;;;;;;2.83;2.17;;;;;;;;;;5050682;28;20376;-78
2023/12/13 06:29:18;;;;;;;2.45;2.25;;;;;;;;;;5048778;28;20032;-77
2023/12/13 06:31:43;;;;;;;1.38;1.05;;;;;;;;;;5050814;28;20036;-78
2023/12/13 06:34:09;;;;;;;3.00;2.72;;;;;;;;;;5049220;28;20017;-77
2023/12/13 06:36:34;;;;;;;9.73;5.57;;;;;;;;;;5052711;28;20384;-77
2023/12/13 06:39:04;;;;;;;5.05;3.25;;;;;;;;;;5051716;28;20021;-79
2023/12/13 06:41:30;;;;;;;8.65;5.28;;;;;;;;;;5050380;28;20021;-79
2023/12/13 06:43:56;;;;;;;4.32;2.60;;;;;;;;;;5045126;28;20029;-78
2023/12/13 06:46:22;;;;;;;5.43;3.42;;;;;;;;;;5050162;28;20029;-78
2023/12/13 06:48:48;;;;;;;4.00;3.13;;;;;;;;;;5045333;28;20111;-78
2023/12/13 06:51:13;;;;;;;1.27;1.15;;;;;;;;;;5049789;28;20494;-78
2023/12/13 06:53:39;;;;;;;4.95;3.58;;;;;;;;;;5049738;28;20050;-78
2023/12/13 06:56:04;;;;;;;4.07;3.78;;;;;;;;;;5049673;28;20053;-78
2023/12/13 06:58:30;;;;;;;6.85;4.13;;;;;;;;;;5048906;28;20071;-79
2023/12/13 07:00:55;;;;;;;4.82;3.28;;;;;;;;;;5046588;28;20040;-78
2023/12/13 07:03:21;;;;;;;4.32;2.58;;;;;;;;;;5048017;28;20112;-78
2023/12/13 07:05:46;;;;;;;2.85;2.58;;;;;;;;;;5048112;28;20033;-77
2023/12/13 07:08:12;;;;;;;9.93;3.90;;;;;;;;;;5045888;28;20036;-79
2023/12/13 07:10:38;;;;;;;2.53;2.33;;;;;;;;;;5048182;28;20083;-77
2023/12/13 07:13:04;;;;;;;5.43;3.83;;;;;;;;;;5047355;28;20139;-78
2023/12/13 07:15:29;;;;;;;6.00;4.97;;;;;;;;;;5046360;28;20040;-79
2023/12/13 07:17:54;;;;;;;7.72;3.45;;;;;;;;;;5046264;28;20500;-78
2023/12/13 07:20:21;;;;;;;4.57;2.85;;;;;;;;;;5047055;28;20035;-78
2023/12/13 07:22:47;;;;;;;3.58;3.08;;;;;;;;;;5050823;28;20102;-78
2023/12/13 07:25:12;;;;;;;7.15;3.20;;;;;;;;;;5049979;28;20442;-78
2023/12/13 07:27:38;;;;;;;4.72;3.88;;;;;;;;;;5049615;28;20470;-81
2023/12/13 07:30:04;;;;;;;9.05;4.65;;;;;;;;;;5048796;28;20024;-82
2023/12/13 07:32:29;;;;;;;5.22;4.38;;;;;;;;;;5048653;28;20029;-79
2023/12/13 07:34:55;;;;;;;5.78;2.38;;;;;;;;;;5047166;28;20038;-79
2023/12/13 07:37:20;;;;;;;7.68;3.65;;;;;;;;;;5048566;28;20028;-79
2023/12/13 07:39:45;;;;;;;4.28;2.63;;;;;;;;;;5047759;28;20029;-79
2023/12/13 07:42:11;;;;;;;5.15;2.97;;;;;;;;;;5046858;28;20028;-78
2023/12/13 07:44:36;;;;;;;4.63;3.58;;;;;;;;;;5045791;28;20044;-80
2023/12/13 07:47:02;;;;;;;6.18;4.80;;;;;;;;;;5048265;28;20075;-80
2023/12/13 07:49:28;;;;;;;12.05;4.78;;;;;;;;;;5049791;28;20033;-78
2023/12/13 07:51:55;;;;;;;5.35;4.65;;;;;;;;;;5049552;28;20551;-79
2023/12/13 07:54:21;;;;;;;8.75;4.50;;;;;;;;;;5047689;28;20385;-78
2023/12/13 07:57:06;;;;;;;8.70;6.50;;;;;;;;;;5047590;28;20543;-79
2023/12/13 07:59:31;;;;;;;10.18;6.00;;;;;;;;;;5046921;28;20029;-79
2023/12/13 08:01:56;;;;;;;18.77;8.93;;;;;;;;;;5048130;28;20420;-78
2023/12/13 08:04:22;;;;;;;7.30;4.82;;;;;;;;;;5049223;28;20025;-78
2023/12/13 08:06:47;;;;;;;7.97;4.95;;;;;;;;;;5049018;28;20021;-79
2023/12/13 08:09:13;;;;;;;9.18;5.57;;;;;;;;;;5048986;28;20061;-79
2023/12/13 08:11:39;;;;;;;6.63;5.65;;;;;;;;;;5048777;28;20025;-77
2023/12/13 08:14:04;;;;;;;6.68;5.00;;;;;;;;;;5047067;28;20117;-77
2023/12/13 08:16:30;;;;;;;11.80;4.97;;;;;;;;;;5045527;28;20048;-78
2023/12/13 08:18:55;;;;;;;7.07;4.70;;;;;;;;;;5046903;28;20095;-78
2023/12/13 08:21:24;;;;;;;9.60;5.40;;;;;;;;;;5048177;28;20033;-79
2023/12/13 08:23:49;;;;;;;7.85;4.95;;;;;;;;;;5048450;28;20021;-77
2023/12/13 08:26:15;;;;;;;5.13;3.78;;;;;;;;;;5048340;28;20033;-79
2023/12/13 08:28:40;;;;;;;7.90;4.82;;;;;;;;;;5048582;28;20037;-78
2023/12/13 08:31:07;;;;;;;9.80;5.28;;;;;;;;;;5048199;28;20033;-80
2023/12/13 08:33:32;;;;;;;11.55;6.53;;;;;;;;;;5046690;28;20042;-79
2023/12/13 08:35:59;;;;;;;7.45;4.97;;;;;;;;;;5047999;28;20366;-78
2023/12/13 08:38:24;;;;;;;14.43;8.90;;;;;;;;;;5049000;28;20432;-79
2023/12/13 08:40:50;;;;;;;7.90;6.32;;;;;;;;;;5047462;28;20033;-77
2023/12/13 08:43:15;;;;;;;15.13;7.30;;;;;;;;;;5048388;28;20044;-78
2023/12/13 08:45:41;;;;;;;11.25;6.53;;;;;;;;;;5044632;28;20051;-78
2023/12/13 08:48:07;;;;;;;8.95;7.13;;;;;;;;;;5048038;28;20108;-79
2023/12/13 08:50:33;;;;;;;11.20;8.20;;;;;;;;;;5047809;28;20104;-77
2023/12/13 08:52:58;;;;;;;14.60;5.85;;;;;;;;;;5047967;28;20033;-78
2023/12/13 08:55:24;;;;;;;12.77;6.80;;;;;;;;;;5041822;28;20144;-79
2023/12/13 08:57:49;;;;;;;6.03;4.50;;;;;;;;;;5044770;28;20090;-77
2023/12/13 09:00:15;;;;;;;12.68;7.13;;;;;;;;;;5047337;28;20074;-78
2023/12/13 09:02:40;;;;;;;8.10;6.50;;;;;;;;;;5046649;28;20088;-78
2023/12/13 09:05:06;;;;;;;10.82;6.47;;;;;;;;;;5047803;28;20134;-77
2023/12/13 09:07:32;;;;;;;12.15;6.32;;;;;;;;;;5048038;28;20440;-79
2023/12/13 09:09:58;;;;;;;11.38;6.05;;;;;;;;;;5047857;28;20056;-78
2023/12/13 09:12:23;;;;;;;15.75;7.47;;;;;;;;;;5048005;28;20060;-80
2023/12/13 09:14:48;;;;;;;14.25;7.68;;;;;;;;;;5046765;28;20032;-79
2023/12/13 09:17:14;;;;;;;11.57;6.75;;;;;;;;;;5046452;28;20117;-78
2023/12/13 09:19:39;;;;;;;11.07;6.63;;;;;;;;;;5047539;28;20021;-76
2023/12/13 09:22:05;;;;;;;7.55;5.32;;;;;;;;;;5048049;28;20021;-77
2023/12/13 09:24:30;;;;;;;10.07;6.55;;;;;;;;;;5046573;28;20025;-79
2023/12/13 09:26:56;;;;;;;10.98;5.70;;;;;;;;;;5047453;28;20043;-79
2023/12/13 09:29:21;;;;;;;12.18;7.32;;;;;;;;;;5047406;28;20474;-77
2023/12/13 09:31:47;;;;;;;16.95;7.00;;;;;;;;;;5048014;28;20143;-77
2023/12/13 09:34:13;;;;;;;12.60;7.60;;;;;;;;;;5049762;28;20102;-77
2023/12/13 09:36:39;;;;;;;13.10;9.00;;;;;;;;;;5050577;28;20037;-78
2023/12/13 09:39:05;;;;;;;11.18;7.60;;;;;;;;;;5051365;28;20068;-78
2023/12/13 09:42:00;;;;;;;12.07;5.95;;;;;;;;;;5051458;28;20101;-78
2023/12/13 09:44:26;;;;;;;15.68;8.20;;;;;;;;;;5050638;28;20041;-78
2023/12/13 09:46:53;;;;;;;10.43;6.78;;;;;;;;;;5048416;28;20414;-79
2023/12/13 09:49:22;;;;;;;7.47;6.53;;;;;;;;;;5051365;28;20025;-79
2023/12/13 09:51:49;;;;;;;30.48;6.82;;;;;;;;;;5051104;28;20052;-78
2023/12/13 09:54:15;;;;;;;8.75;5.88;;;;;;;;;;5050185;28;20037;-77
2023/12/13 09:56:40;;;;;;;8.52;6.03;;;;;;;;;;5050962;28;20185;-78
2023/12/13 09:59:09;;;;;;;7.75;5.80;;;;;;;;;;5050944;28;20036;-77
2023/12/13 10:01:34;;;;;;;6.80;4.40;;;;;;;;;;5052330;28;20025;-77
2023/12/13 10:04:00;;;;;;;8.18;5.20;;;;;;;;;;5054918;28;20045;-77
2023/12/13 10:06:26;;;;;;;8.40;4.82;;;;;;;;;;5055802;28;20044;-76
2023/12/13 10:08:55;;;;;;;5.30;3.63;;;;;;;;;;5053954;28;20353;-78
2023/12/13 10:11:21;;;;;;;4.50;3.28;;;;;;;;;;5048446;28;20032;-78
2023/12/13 10:13:46;;;;;;;5.55;3.55;;;;;;;;;;5049384;28;20484;-78
2023/12/13 10:16:13;;;;;;;9.27;6.07;;;;;;;;;;5050932;28;20032;-78
2023/12/13 10:18:40;;;;;;;7.10;5.57;;;;;;;;;;5051384;28;20071;-77
2023/12/13 10:21:08;;;;;;;12.73;6.72;;;;;;;;;;5050918;28;20090;-79
2023/12/13 10:23:35;;;;;;;9.38;4.80;;;;;;;;;;5050113;28;20033;-77
2023/12/13 10:26:02;;;;;;;7.53;4.55;;;;;;;;;;5049398;28;20082;-77
2023/12/13 10:28:27;;;;;;;5.50;4.90;;;;;;;;;;5046092;28;20043;-78
2023/12/13 10:30:52;;;;;;;8.15;3.28;;;;;;;;;;5049127;28;20473;-80
2023/12/13 10:33:19;;;;;;;7.70;4.10;;;;;;;;;;5047287;28;20060;-79
2023/12/13 10:35:46;;;;;;;15.82;5.68;;;;;;;;;;5048780;28;20440;-79
2023/12/13 10:38:14;;;;;;;12.93;5.95;;;;;;;;;;5048888;28;20036;-78
2023/12/13 10:40:41;;;;;;;7.25;4.50;;;;;;;;;;5047607;28;20025;-79
2023/12/13 10:43:10;;;;;;;6.70;5.05;;;;;;;;;;5049952;28;20126;-78
2023/12/13 10:45:40;;;;;;;11.40;7.73;;;;;;;;;;5049581;28;20143;-78
2023/12/13 10:48:08;;;;;;;8.13;5.70;;;;;;;;;;5045628;28;20488;-78
2023/12/13 10:50:35;;;;;;;9.88;6.80;;;;;;;;;;5043961;28;20413;-78
2023/12/13 10:53:01;;;;;;;5.93;5.18;;;;;;;;;;5047415;28;20469;-77
2023/12/13 10:55:27;;;;;;;7.32;4.70;;;;;;;;;;5046290;28;20033;-78
2023/12/13 10:57:54;;;;;;;9.57;5.45;;;;;;;;;;5048330;28;20397;-77
2023/12/13 11:00:22;;;;;;;6.00;4.47;;;;;;;;;;5048078;28;20457;-79
2023/12/13 11:02:52;;;;;;;9.02;4.82;;;;;;;;;;5049555;28;20456;-78
2023/12/13 11:05:18;;;;;;;6.30;5.32;;;;;;;;;;5049787;28;20473;-78
2023/12/13 11:07:47;;;;;;;7.72;5.95;;;;;;;;;;5048107;28;20037;-77
2023/12/13 11:10:14;;;;;;;7.18;4.93;;;;;;;;;;5049530;28;20029;-82
2023/12/13 11:12:49;;;;;;;6.47;3.42;;;;;;;;;;5048698;28;20408;-80
2023/12/13 11:15:15;;;;;;;8.05;5.90;;;;;;;;;;5047129;28;20033;-80
2023/12/13 11:17:48;;;;;;;11.60;7.32;;;;;;;;;;5049159;28;20040;-81
2023/12/13 11:20:14;;;;;;;4.93;4.10;;;;;;;;;;5046458;28;20031;-78
2023/12/13 11:22:45;;;;;;;11.98;5.57;;;;;;;;;;5048175;28;20033;-79
2023/12/13 11:25:11;;;;;;;7.95;5.30;;;;;;;;;;5047639;28;20029;-80
2023/12/13 11:27:55;;;;;;;7.75;5.38;;;;;;;;;;5047963;28;20119;-78
2023/12/13 11:30:21;;;;;;;7.80;5.43;;;;;;;;;;5059904;28;20036;-79
2023/12/13 11:32:47;;;;;;;8.10;4.18;;;;;;;;;;5047505;28;20028;-81
2023/12/13 11:35:19;;;;;;;4.90;3.83;;;;;;;;;;5047491;28;20024;-79
2023/12/13 11:37:52;;;;;;;8.85;4.18;;;;;;;;;;5048404;28;20036;-80
2023/12/13 11:40:18;;;;;;;4.03;3.13;;;;;;;;;;5044570;28;20040;-77
2023/12/13 11:42:49;;;;;;;14.38;6.95;;;;;;;;;;5048554;28;20021;-79
2023/12/13 11:45:19;;;;;;;8.90;5.72;;;;;;;;;;5049948;28;20385;-78
2023/12/13 11:47:46;;;;;;;10.10;7.43;;;;;;;;;;5079328;28;20029;-76
2023/12/13 11:50:13;;;;;;;10.70;7.50;;;;;;;;;;5048164;28;20035;-79
2023/12/13 11:52:41;;;;;;;8.40;4.90;;;;;;;;;;5049849;28;20037;-80
2023/12/13 11:55:08;;;;;;;14.38;6.90;;;;;;;;;;5048071;28;20110;-81
2023/12/13 11:57:33;;;;;;;7.75;5.88;;;;;;;;;;5049523;28;20053;-80
2023/12/13 11:59:59;;;;;;;12.95;5.10;;;;;;;;;;5049707;28;20025;-81
2023/12/13 12:02:25;;;;;;;9.00;6.18;;;;;;;;;;5049391;28;20053;-82
2023/12/13 12:04:50;;;;;;;4.40;3.85;;;;;;;;;;5047802;28;20488;-81
2023/12/13 12:07:17;;;;;;;10.20;6.18;;;;;;;;;;5047110;28;20036;-80
2023/12/13 12:09:50;;;;;;;9.20;5.28;;;;;;;;;;5047467;28;20033;-80
2023/12/13 12:12:17;;;;;;;12.23;5.38;;;;;;;;;;5049149;28;20028;-79
2023/12/13 12:14:45;;;;;;;5.88;4.63;;;;;;;;;;5049667;28;20039;-77
2023/12/13 12:17:11;;;;;;;10.85;4.78;;;;;;;;;;5049852;28;20132;-80
2023/12/13 12:19:38;;;;;;;7.93;3.75;;;;;;;;;;5049085;28;20413;-79
2023/12/13 12:22:03;;;;;;;6.90;4.97;;;;;;;;;;5047514;28;20025;-78
2023/12/13 12:24:29;;;;;;;10.05;5.78;;;;;;;;;;5048068;28;20051;-78
2023/12/13 12:27:06;;;;;;;8.00;4.63;;;;;;;;;;5048513;28;20029;-77
2023/12/13 12:29:31;;;;;;;5.57;4.28;;;;;;;;;;5047973;28;20120;-79
2023/12/13 12:31:57;;;;;;;5.63;3.75;;;;;;;;;;5048128;28;20129;-79
2023/12/13 12:34:22;;;;;;;11.07;4.72;;;;;;;;;;5047474;28;20025;-77
2023/12/13 12:36:47;;;;;;;7.72;3.80;;;;;;;;;;5048102;28;20032;-78
2023/12/13 12:39:13;;;;;;;4.53;3.42;;;;;;;;;;5047446;28;20090;-78
2023/12/13 12:41:38;;;;;;;12.95;4.45;;;;;;;;;;5047330;28;20028;-78
2023/12/13 12:44:04;;;;;;;7.07;3.47;;;;;;;;;;5046530;28;20025;-77
2023/12/13 12:46:30;;;;;;;7.72;4.55;;;;;;;;;;5049583;28;20365;-79
2023/12/13 12:48:55;;;;;;;6.18;3.88;;;;;;;;;;5047047;28;20063;-80
2023/12/13 12:51:20;;;;;;;4.97;2.95;;;;;;;;;;5047744;28;20031;-79
2023/12/13 12:53:46;;;;;;;7.05;3.90;;;;;;;;;;5048433;28;20033;-78
2023/12/13 12:56:12;;;;;;;3.60;3.03;;;;;;;;;;5046340;28;20552;-78
2023/12/13 12:58:38;;;;;;;6.28;4.22;;;;;;;;;;5047181;28;20055;-78
2023/12/13 13:01:03;;;;;;;5.05;3.75;;;;;;;;;;5045513;28;20061;-80
2023/12/13 13:03:29;;;;;;;13.70;3.85;;;;;;;;;;5045566;28;20064;-78
2023/12/13 13:05:54;;;;;;;8.23;2.88;;;;;;;;;;5046674;28;20029;-77
2023/12/13 13:08:20;;;;;;;5.90;4.82;;;;;;;;;;5048607;28;20033;-77
2023/12/13 13:10:45;;;;;;;6.53;4.68;;;;;;;;;;5040146;28;20489;-78
2023/12/13 13:13:11;;;;;;;11.40;5.13;;;;;;;;;;5042529;28;20021;-78
2023/12/13 13:15:36;;;;;;;10.77;4.35;;;;;;;;;;5046878;28;20485;-77
2023/12/13 13:18:02;;;;;;;6.28;3.70;;;;;;;;;;5046117;28;20485;-77
2023/12/13 13:20:27;;;;;;;20.77;6.43;;;;;;;;;;5047514;28;20033;-79
2023/12/13 13:22:53;;;;;;;7.25;4.45;;;;;;;;;;5047569;28;20040;-79
2023/12/13 13:25:19;;;;;;;6.60;3.97;;;;;;;;;;5048258;28;20024;-80
2023/12/13 13:27:45;;;;;;;1.77;1.67;;;;;;;;;;5045900;28;20528;-78
2023/12/13 13:30:11;;;;;;;6.78;3.25;;;;;;;;;;5046568;28;20109;-78
2023/12/13 13:32:37;;;;;;;5.50;2.08;;;;;;;;;;5040325;28;20023;-78
2023/12/13 13:35:04;;;;;;;9.40;4.65;;;;;;;;;;5043302;28;20033;-79
2023/12/13 13:37:30;;;;;;;6.30;3.97;;;;;;;;;;5045901;28;20075;-78
2023/12/13 13:39:56;;;;;;;7.05;3.47;;;;;;;;;;5049332;28;20052;-76
2023/12/13 13:42:21;;;;;;;8.27;4.90;;;;;;;;;;5048436;28;20540;-76
2023/12/13 13:44:47;;;;;;;5.53;4.07;;;;;;;;;;5046932;28;20442;-78
2023/12/13 13:47:12;;;;;;;3.42;2.90;;;;;;;;;;5048868;28;20031;-78
2023/12/13 13:49:38;;;;;;;8.45;2.90;;;;;;;;;;5080699;28;20025;-78
2023/12/13 13:52:04;;;;;;;10.23;5.53;;;;;;;;;;5047358;28;20025;-78
2023/12/13 13:54:29;;;;;;;5.30;4.65;;;;;;;;;;5045965;28;20029;-80
2023/12/13 13:56:55;;;;;;;9.70;6.55;;;;;;;;;;5048459;28;20754;-78
2023/12/13 13:59:21;;;;;;;6.00;4.30;;;;;;;;;;5048921;28;20132;-79
2023/12/13 14:01:52;;;;;;;4.53;3.13;;;;;;;;;;5047495;28;20068;-78
2023/12/13 14:04:18;;;;;;;7.32;4.07;;;;;;;;;;5047154;28;20040;-79
2023/12/13 14:06:43;;;;;;;4.05;2.70;;;;;;;;;;5047601;28;20029;-78
2023/12/13 14:09:10;;;;;;;5.78;2.47;;;;;;;;;;5046521;28;20433;-78
2023/12/13 14:11:36;;;;;;;1.38;0.98;;;;;;;;;;5048210;28;20114;-78
2023/12/13 14:14:02;;;;;;;9.63;3.75;;;;;;;;;;5048825;28;20025;-78
2023/12/13 14:16:28;;;;;;;5.35;2.83;;;;;;;;;;5046663;28;20070;-77
2023/12/13 14:18:53;;;;;;;3.97;2.15;;;;;;;;;;5050385;28;20021;-76
2023/12/13 14:21:19;;;;;;;2.55;1.92;;;;;;;;;;5052094;28;20021;-78
2023/12/13 14:23:44;;;;;;;1.50;1.40;;;;;;;;;;5052171;28;20056;-78
2023/12/13 14:26:09;;;;;;;2.88;1.02;;;;;;;;;;5050607;28;20025;-77
2023/12/13 14:28:36;;;;;;;2.40;1.45;;;;;;;;;;5052155;28;20118;-78
2023/12/13 14:31:01;;;;;;;1.48;1.35;;;;;;;;;;5049300;28;20037;-78
2023/12/13 14:33:28;;;;;;;3.65;2.55;;;;;;;;;;5050451;28;20063;-79
2023/12/13 14:35:54;;;;;;;2.65;1.92;;;;;;;;;;5051259;28;20455;-77
2023/12/13 14:38:19;;;;;;;2.15;1.55;;;;;;;;;;5050199;28;20159;-78
2023/12/13 14:40:46;;;;;;;2.80;1.65;;;;;;;;;;5049925;28;20028;-78